Pagrindinis puslapis
METAR-TAF:

METAR-TAF

Oro uostai :

Kerkyra, Graikija

platuma: 39-37N, ilguma: 019-55E, Aukštis: 2 m

Dabartinis oras

Ataskaita buvo paskelbta 21 minutes, ne 11:20 UTC
Vėjas 4 kt iš Pietryčių
Temperatūra 28°C
Drėgmė 45%
Slėgis 1020 hPa
Matomumas 10 km arba daugiau
Išsisklaidę debesys ne aukštis 3000 ft

METAR: LGKR 211120Z 14004KT 9999 SCT030 28/15 Q1020 NOSIG

Laikas: 14:41 (11:41 UTC)

Prognozė

Ataskaita buvo paskelbta 41 minutes, ne 11:00 UTC
Prognozė galioja nuo 21 metu 12 UTC su 22 metu 12 UTC
Vėjas 3 kt nuo kintamojo kryptimis
Matomumas 10 km arba daugiau
Mažai debesys ne aukštis 2000 ft
Tapsmas
nuo 22 metu 00 UTC su 22 metu 02 UTC
Vėjas 15 kt iš Pietų/Pietryčių

TAF: LGKR 211100Z 2112/2212 VRB03KT 9999 FEW020 BECMG 2200/2202 16015KT

Orai ataskaitas ir orų prognozės (METAR, TAF).

turimą stotys yra geltonos ir raudonos taškus žemėlapyje.

Perkelti pele per norėdami pamatyti stoties vardą.

Tada spustelėkite, norėdami matyti oro stebėjimo ir prognozės.

Norėdami pakeisti žemėlapį: spustelėkite ant žalios mygtukų su juodo kryžiaus žemyn,; žalią mygtuką su brūkšneliu, jei norite nutolinti; arba žalių rodyklių gretimoms žemėlapius.


METAR-TAF: